sensor_id;sensor_type;location;lat;lon;timestamp;pressure;altitude;pressure_sealevel;temperature
65738;BMP280;52478;51.844;6.582;2023-02-21T17:48:02;101484.97;;;21.08
65738;BMP280;52478;51.844;6.582;2023-02-21T17:50:30;101480.91;;;21.09
65738;BMP280;52478;51.844;6.582;2023-02-21T17:52:57;101483.47;;;21.12
65738;BMP280;52478;51.844;6.582;2023-02-21T17:55:24;101485.72;;;21.14
65738;BMP280;52478;51.844;6.582;2023-02-21T17:57:53;101484.97;;;21.19
65738;BMP280;52478;51.844;6.582;2023-02-21T18:00:22;101480.38;;;21.21
65738;BMP280;52478;51.844;6.582;2023-02-21T18:02:49;101488.47;;;21.24
65738;BMP280;52478;51.844;6.582;2023-02-21T18:05:17;101487.50;;;21.27
65738;BMP280;52478;51.844;6.582;2023-02-21T18:07:45;101488.50;;;21.30
65738;BMP280;52478;51.844;6.582;2023-02-21T18:10:12;101491.50;;;21.32
65738;BMP280;52478;51.844;6.582;2023-02-21T18:12:38;101481.91;;;21.33
65738;BMP280;52478;51.844;6.582;2023-02-21T18:15:06;101489.75;;;21.34
65738;BMP280;52478;51.844;6.582;2023-02-21T18:17:34;101480.16;;;21.35
65738;BMP280;52478;51.844;6.582;2023-02-21T18:20:00;101484.44;;;21.36
65738;BMP280;52478;51.844;6.582;2023-02-21T18:22:28;101485.94;;;21.37
65738;BMP280;52478;51.844;6.582;2023-02-21T18:24:55;101486.72;;;21.38
65738;BMP280;52478;51.844;6.582;2023-02-21T18:27:22;101476.31;;;21.38
65738;BMP280;52478;51.844;6.582;2023-02-21T18:29:48;101483.94;;;21.38
65738;BMP280;52478;51.844;6.582;2023-02-21T18:32:18;101486.22;;;21.39
65738;BMP280;52478;51.844;6.582;2023-02-21T18:34:45;101486.22;;;21.39
65738;BMP280;52478;51.844;6.582;2023-02-21T18:37:11;101482.16;;;21.40
65738;BMP280;52478;51.844;6.582;2023-02-21T18:39:39;101471.00;;;21.40
65738;BMP280;52478;51.844;6.582;2023-02-21T18:42:05;101480.88;;;21.41
65738;BMP280;52478;51.844;6.582;2023-02-21T18:44:32;101477.31;;;21.41
65738;BMP280;52478;51.844;6.582;2023-02-21T18:46:58;101476.59;;;21.40
65738;BMP280;52478;51.844;6.582;2023-02-21T18:49:25;101479.63;;;21.42
65738;BMP280;52478;51.844;6.582;2023-02-21T18:51:52;101474.03;;;21.42
65738;BMP280;52478;51.844;6.582;2023-02-21T18:54:19;101472.78;;;21.43
65738;BMP280;52478;51.844;6.582;2023-02-21T18:56:48;101468.47;;;21.42
65738;BMP280;52478;51.844;6.582;2023-02-21T18:59:18;101460.91;;;21.43
65738;BMP280;52478;51.844;6.582;2023-02-21T19:01:47;101458.84;;;21.43
65738;BMP280;52478;51.844;6.582;2023-02-21T19:04:13;101455.31;;;21.43
65738;BMP280;52478;51.844;6.582;2023-02-21T19:06:39;101455.81;;;21.41
65738;BMP280;52478;51.844;6.582;2023-02-21T19:09:06;101457.34;;;21.42
65738;BMP280;52478;51.844;6.582;2023-02-21T19:11:32;101458.84;;;21.43
65738;BMP280;52478;51.844;6.582;2023-02-21T19:14:00;101463.69;;;21.43
65738;BMP280;52478;51.844;6.582;2023-02-21T19:16:28;101457.34;;;21.42
65738;BMP280;52478;51.844;6.582;2023-02-21T19:18:55;101457.34;;;21.42
65738;BMP280;52478;51.844;6.582;2023-02-21T19:21:22;101458.84;;;21.43
65738;BMP280;52478;51.844;6.582;2023-02-21T19:23:49;101456.06;;;21.43
65738;BMP280;52478;51.844;6.582;2023-02-21T19:26:16;101456.06;;;21.43
65738;BMP280;52478;51.844;6.582;2023-02-21T19:28:43;101456.06;;;21.43
65738;BMP280;52478;51.844;6.582;2023-02-21T19:31:11;101455.31;;;21.43
65738;BMP280;52478;51.844;6.582;2023-02-21T19:33:39;101457.34;;;21.42
65738;BMP280;52478;51.844;6.582;2023-02-21T19:36:07;101450.25;;;21.41
65738;BMP280;52478;51.844;6.582;2023-02-21T19:38:33;101447.72;;;21.43
65738;BMP280;52478;51.844;6.582;2023-02-21T19:41:00;101450.25;;;21.41
65738;BMP280;52478;51.844;6.582;2023-02-21T19:43:26;101453.28;;;21.43
65738;BMP280;52478;51.844;6.582;2023-02-21T19:45:53;101456.59;;;21.42
65738;BMP280;52478;51.844;6.582;2023-02-21T19:48:21;101451.75;;;21.42
65738;BMP280;52478;51.844;6.582;2023-02-21T19:50:48;101452.53;;;21.43
65738;BMP280;52478;51.844;6.582;2023-02-21T19:53:14;101456.59;;;21.42
65738;BMP280;52478;51.844;6.582;2023-02-21T19:55:41;101457.34;;;21.42
65738;BMP280;52478;51.844;6.582;2023-02-21T19:58:08;101455.81;;;21.41
65738;BMP280;52478;51.844;6.582;2023-02-21T20:00:35;101448.72;;;21.40
65738;BMP280;52478;51.844;6.582;2023-02-21T20:03:03;101440.91;;;21.39
65738;BMP280;52478;51.844;6.582;2023-02-21T20:05:31;101440.13;;;21.38
65738;BMP280;52478;51.844;6.582;2023-02-21T20:07:57;101446.47;;;21.39
65738;BMP280;52478;51.844;6.582;2023-02-21T20:10:24;101452.03;;;21.39
65738;BMP280;52478;51.844;6.582;2023-02-21T20:12:50;101441.66;;;21.39
65738;BMP280;52478;51.844;6.582;2023-02-21T20:15:17;101439.38;;;21.38
65738;BMP280;52478;51.844;6.582;2023-02-21T20:17:44;101438.59;;;21.37
65738;BMP280;52478;51.844;6.582;2023-02-21T20:20:10;101440.13;;;21.38
65738;BMP280;52478;51.844;6.582;2023-02-21T20:22:38;101440.13;;;21.38
65738;BMP280;52478;51.844;6.582;2023-02-21T20:25:05;101434.53;;;21.38
65738;BMP280;52478;51.844;6.582;2023-02-21T20:27:32;101435.31;;;21.39
65738;BMP280;52478;51.844;6.582;2023-02-21T20:30:00;101428.97;;;21.38
65738;BMP280;52478;51.844;6.582;2023-02-21T20:32:26;101433.03;;;21.37
65738;BMP280;52478;51.844;6.582;2023-02-21T20:34:52;101434.53;;;21.38
65738;BMP280;52478;51.844;6.582;2023-02-21T20:37:21;101417.09;;;21.38
65738;BMP280;52478;51.844;6.582;2023-02-21T20:39:49;101421.41;;;21.39
65738;BMP280;52478;51.844;6.582;2023-02-21T20:42:16;101423.41;;;21.38
65738;BMP280;52478;51.844;6.582;2023-02-21T20:44:46;101417.09;;;21.38
65738;BMP280;52478;51.844;6.582;2023-02-21T20:47:13;101413.53;;;21.37
65738;BMP280;52478;51.844;6.582;2023-02-21T20:49:41;101412.75;;;21.37
65738;BMP280;52478;51.844;6.582;2023-02-21T20:52:08;101414.31;;;21.38
65738;BMP280;52478;51.844;6.582;2023-02-21T20:54:34;101420.38;;;21.36
65738;BMP280;52478;51.844;6.582;2023-02-21T20:57:02;101407.97;;;21.37
65738;BMP280;52478;51.844;6.582;2023-02-21T20:59:31;101402.88;;;21.36
65738;BMP280;52478;51.844;6.582;2023-02-21T21:01:58;101401.41;;;21.35
65738;BMP280;52478;51.844;6.582;2023-02-21T21:04:27;101403.66;;;21.36
65738;BMP280;52478;51.844;6.582;2023-02-21T21:06:55;101397.31;;;21.36
65738;BMP280;52478;51.844;6.582;2023-02-21T21:09:22;101391.03;;;21.35
65738;BMP280;52478;51.844;6.582;2023-02-21T21:11:54;101399.38;;;21.35
65738;BMP280;52478;51.844;6.582;2023-02-21T21:14:26;101389.50;;;21.34
65738;BMP280;52478;51.844;6.582;2023-02-21T21:16:53;101390.25;;;21.35
65738;BMP280;52478;51.844;6.582;2023-02-21T21:19:21;101391.03;;;21.35
65738;BMP280;52478;51.844;6.582;2023-02-21T21:21:48;101384.69;;;21.35
65738;BMP280;52478;51.844;6.582;2023-02-21T21:24:15;101385.47;;;21.35
65738;BMP280;52478;51.844;6.582;2023-02-21T21:26:43;101391.03;;;21.35
65738;BMP280;52478;51.844;6.582;2023-02-21T21:29:15;101383.38;;;21.36
65738;BMP280;52478;51.844;6.582;2023-02-21T21:31:46;101383.91;;;21.34
65738;BMP280;52478;51.844;6.582;2023-02-21T21:34:15;101385.47;;;21.35
65738;BMP280;52478;51.844;6.582;2023-02-21T21:36:43;101385.47;;;21.35
65738;BMP280;52478;51.844;6.582;2023-02-21T21:39:10;101378.34;;;21.34
65738;BMP280;52478;51.844;6.582;2023-02-21T21:41:39;101380.38;;;21.34
65738;BMP280;52478;51.844;6.582;2023-02-21T21:44:11;101387.97;;;21.33
65738;BMP280;52478;51.844;6.582;2023-02-21T21:46:43;101376.81;;;21.33
65738;BMP280;52478;51.844;6.582;2023-02-21T21:49:12;101374.03;;;21.33
65738;BMP280;52478;51.844;6.582;2023-02-21T21:51:40;101369.75;;;21.32
65738;BMP280;52478;51.844;6.582;2023-02-21T21:54:07;101370.50;;;21.33
65738;BMP280;52478;51.844;6.582;2023-02-21T21:56:34;101375.31;;;21.32
65738;BMP280;52478;51.844;6.582;2023-02-21T21:59:04;101358.88;;;21.29
65738;BMP280;52478;51.844;6.582;2023-02-21T22:01:33;101369.53;;;21.30
65738;BMP280;52478;51.844;6.582;2023-02-21T22:04:00;101361.16;;;21.30
65738;BMP280;52478;51.844;6.582;2023-02-21T22:06:28;101365.47;;;21.31
65738;BMP280;52478;51.844;6.582;2023-02-21T22:08:55;101350.03;;;21.30
65738;BMP280;52478;51.844;6.582;2023-02-21T22:11:22;101353.56;;;21.31
65738;BMP280;52478;51.844;6.582;2023-02-21T22:13:48;101352.03;;;21.30
65738;BMP280;52478;51.844;6.582;2023-02-21T22:16:15;101350.03;;;21.30
65738;BMP280;52478;51.844;6.582;2023-02-21T22:18:42;101344.19;;;21.28
65738;BMP280;52478;51.844;6.582;2023-02-21T22:21:08;101341.41;;;21.28
65738;BMP280;52478;51.844;6.582;2023-02-21T22:23:40;101344.47;;;21.30
65738;BMP280;52478;51.844;6.582;2023-02-21T22:26:07;101341.41;;;21.28
65738;BMP280;52478;51.844;6.582;2023-02-21T22:28:34;101345.69;;;21.29
65738;BMP280;52478;51.844;6.582;2023-02-21T22:31:02;101346.97;;;21.28
65738;BMP280;52478;51.844;6.582;2023-02-21T22:33:29;101340.66;;;21.28
65738;BMP280;52478;51.844;6.582;2023-02-21T22:35:56;101335.81;;;21.28
65738;BMP280;52478;51.844;6.582;2023-02-21T22:38:22;101344.19;;;21.28
65738;BMP280;52478;51.844;6.582;2023-02-21T22:40:50;101338.59;;;21.28
65738;BMP280;52478;51.844;6.582;2023-02-21T22:43:17;101332.28;;;21.28
65738;BMP280;52478;51.844;6.582;2023-02-21T22:45:44;101330.25;;;21.28
65738;BMP280;52478;51.844;6.582;2023-02-21T22:48:14;101330.03;;;21.26
65738;BMP280;52478;51.844;6.582;2023-02-21T22:50:41;101324.69;;;21.28
65738;BMP280;52478;51.844;6.582;2023-02-21T22:53:13;101323.19;;;21.27
65738;BMP280;52478;51.844;6.582;2023-02-21T22:55:43;101327.25;;;21.26
65738;BMP280;52478;51.844;6.582;2023-02-21T22:58:16;101324.47;;;21.26
65738;BMP280;52478;51.844;6.582;2023-02-21T23:00:45;101316.13;;;21.26
65738;BMP280;52478;51.844;6.582;2023-02-21T23:03:13;101328.75;;;21.27
65738;BMP280;52478;51.844;6.582;2023-02-21T23:05:41;101320.13;;;21.25
65738;BMP280;52478;51.844;6.582;2023-02-21T23:08:09;101304.97;;;21.26
65738;BMP280;52478;51.844;6.582;2023-02-21T23:10:37;101300.63;;;21.25
65738;BMP280;52478;51.844;6.582;2023-02-21T23:13:09;101296.34;;;21.24
65738;BMP280;52478;51.844;6.582;2023-02-21T23:15:40;101295.06;;;21.25
65738;BMP280;52478;51.844;6.582;2023-02-21T23:18:07;101288.00;;;21.24
65738;BMP280;52478;51.844;6.582;2023-02-21T23:20:34;101285.22;;;21.24
65738;BMP280;52478;51.844;6.582;2023-02-21T23:23:01;101280.41;;;21.25
65738;BMP280;52478;51.844;6.582;2023-02-21T23:25:32;101279.63;;;21.24
65738;BMP280;52478;51.844;6.582;2023-02-21T23:28:02;101282.41;;;21.24
65738;BMP280;52478;51.844;6.582;2023-02-21T23:30:30;101278.16;;;21.23
65738;BMP280;52478;51.844;6.582;2023-02-21T23:33:06;101272.56;;;21.23
65738;BMP280;52478;51.844;6.582;2023-02-21T23:35:33;101269.78;;;21.23
65738;BMP280;52478;51.844;6.582;2023-02-21T23:38:00;101277.38;;;21.23
65738;BMP280;52478;51.844;6.582;2023-02-21T23:40:27;101272.56;;;21.23
65738;BMP280;52478;51.844;6.582;2023-02-21T23:42:55;101272.56;;;21.23
65738;BMP280;52478;51.844;6.582;2023-02-21T23:45:23;101267.00;;;21.23
65738;BMP280;52478;51.844;6.582;2023-02-21T23:47:51;101273.06;;;21.22
65738;BMP280;52478;51.844;6.582;2023-02-21T23:50:22;101272.56;;;21.23
65738;BMP280;52478;51.844;6.582;2023-02-21T23:52:55;101273.84;;;21.23
65738;BMP280;52478;51.844;6.582;2023-02-21T23:55:22;101267.00;;;21.23
65738;BMP280;52478;51.844;6.582;2023-02-21T23:57:51;101268.28;;;21.23
